Time;durP1;ratioP1;P1;durP2;ratioP2;P2;SDS_P1;SDS_P2;PMS_P1;PMS_P2;Temp;Humidity;BMP_temperature;BMP_pressure;BME280_temperature;BME280_humidity;BME280_pressure;Samples;Min_cycle;Max_cycle;Signal;HPM_P1;HPM_P2
2021/09/26 00:02:21;;;;;;;;;;;18.20;99.90;;;;;;5034440;28;20369;-78
2021/09/26 00:04:46;;;;;;;;;;;18.20;99.90;;;;;;5032796;28;20404;-78
2021/09/26 00:07:12;;;;;;;;;;;18.30;99.90;;;;;;5033303;28;19909;-79
2021/09/26 00:09:37;;;;;;;;;;;18.30;99.90;;;;;;5034017;28;19916;-78
2021/09/26 00:12:03;;;;;;;;;;;18.30;99.90;;;;;;5034302;28;20373;-78
2021/09/26 00:14:29;;;;;;;;;;;18.40;99.90;;;;;;5034209;28;19941;-78
2021/09/26 00:16:58;;;;;;;;;;;18.40;99.90;;;;;;5034119;28;19952;-78
2021/09/26 00:19:26;;;;;;;;;;;18.30;99.90;;;;;;5033139;28;19904;-79
2021/09/26 00:21:52;;;;;;;;;;;18.30;99.90;;;;;;5034206;28;19905;-78
2021/09/26 00:24:17;;;;;;;;;;;18.20;99.90;;;;;;5032983;28;19916;-79
2021/09/26 00:26:43;;;;;;;;;;;18.30;99.90;;;;;;5033112;28;19909;-78
2021/09/26 00:29:09;;;;;;;;;;;18.30;99.90;;;;;;5034031;28;19944;-78
2021/09/26 00:31:34;;;;;;;;;;;18.30;99.90;;;;;;5033815;28;19905;-79
2021/09/26 00:34:00;;;;;;;;;;;18.30;99.90;;;;;;5033998;28;19905;-78
2021/09/26 00:36:25;;;;;;;;;;;18.30;99.90;;;;;;5033828;28;19963;-78
2021/09/26 00:38:51;;;;;;;;;;;18.20;99.90;;;;;;5033903;28;19909;-78
2021/09/26 00:41:17;;;;;;;;;;;18.30;99.90;;;;;;5033835;28;20446;-78
2021/09/26 00:43:42;;;;;;;;;;;18.30;99.90;;;;;;5033969;28;19905;-78
2021/09/26 00:46:08;;;;;;;;;;;18.30;99.90;;;;;;5033998;28;20373;-78
2021/09/26 00:48:34;;;;;;;;;;;18.20;99.90;;;;;;5033765;28;19905;-78
2021/09/26 00:51:00;;;;;;;;;;;18.30;99.90;;;;;;5032771;28;20357;-78
2021/09/26 00:53:25;;;;;;;;;;;18.30;99.90;;;;;;5033984;28;19905;-78
2021/09/26 00:55:57;;;;;;;;;;;18.30;99.90;;;;;;5033630;28;19912;-78
2021/09/26 00:58:24;;;;;;;;;;;18.30;99.90;;;;;;5032028;28;19911;-77
2021/09/26 01:00:49;;;;;;;;;;;18.30;99.90;;;;;;5033744;28;20341;-78
2021/09/26 01:03:15;;;;;;;;;;;18.20;99.90;;;;;;5033591;28;19905;-77
2021/09/26 01:05:40;;;;;;;;;;;18.20;99.90;;;;;;5033002;28;19940;-78
2021/09/26 01:08:13;;;;;;;;;;;18.20;99.90;;;;;;5033616;28;20004;-78
2021/09/26 01:10:50;;;;;;;;;;;18.20;99.90;;;;;;5033666;28;20335;-78
2021/09/26 01:13:22;;;;;;;;;;;18.30;99.90;;;;;;5033426;28;20233;-78
2021/09/26 01:15:48;;;;;;;;;;;18.20;99.90;;;;;;5033603;28;19909;-78
2021/09/26 01:18:19;;;;;;;;;;;18.30;99.90;;;;;;5032081;28;19905;-78
2021/09/26 01:20:44;;;;;;;;;;;18.40;99.90;;;;;;5033441;28;20361;-78
2021/09/26 01:23:29;;;;;;;;;;;18.40;99.90;;;;;;5032243;28;20047;-79
2021/09/26 01:26:03;;;;;;;;;;;18.40;99.90;;;;;;5033027;28;19932;-78
2021/09/26 01:28:47;;;;;;;;;;;18.40;99.90;;;;;;5033371;28;19905;-78
2021/09/26 01:31:17;;;;;;;;;;;18.40;99.90;;;;;;5033406;28;19905;-78
2021/09/26 01:33:45;;;;;;;;;;;18.20;99.90;;;;;;5033279;28;19905;-78
2021/09/26 01:36:34;;;;;;;;;;;18.10;99.90;;;;;;5031678;28;19905;-78
2021/09/26 01:38:59;;;;;;;;;;;18.20;99.90;;;;;;5034785;28;19905;-77
2021/09/26 01:41:33;;;;;;;;;;;18.20;99.90;;;;;;5037320;28;19905;-77
2021/09/26 01:43:59;;;;;;;;;;;18.30;99.90;;;;;;5037277;28;19909;-77
2021/09/26 01:46:30;;;;;;;;;;;18.30;99.90;;;;;;5036942;28;19909;-77
2021/09/26 01:49:05;;;;;;;;;;;18.20;99.90;;;;;;5037533;28;20289;-78
2021/09/26 01:51:38;;;;;;;;;;;18.10;99.90;;;;;;5037276;28;20337;-77
2021/09/26 01:54:06;;;;;;;;;;;18.20;99.90;;;;;;5037253;28;20284;-77
2021/09/26 01:56:33;;;;;;;;;;;18.10;99.90;;;;;;5036916;28;19928;-77
2021/09/26 01:58:59;;;;;;;;;;;18.10;99.90;;;;;;5037127;28;19911;-78
2021/09/26 02:01:25;;;;;;;;;;;17.80;99.90;;;;;;5037188;28;19930;-80
2021/09/26 02:03:53;;;;;;;;;;;17.50;99.90;;;;;;5036930;28;19905;-84
2021/09/26 02:06:19;;;;;;;;;;;17.30;99.90;;;;;;5035715;28;19909;-86
2021/09/26 02:08:45;;;;;;;;;;;17.20;99.90;;;;;;5035745;28;19905;-84
2021/09/26 02:11:12;;;;;;;;;;;17.20;99.90;;;;;;5036970;28;19912;-86
2021/09/26 02:13:41;;;;;;;;;;;17.20;99.90;;;;;;5035590;28;20003;-84
2021/09/26 02:16:09;;;;;;;;;;;17.10;99.90;;;;;;5035354;28;19905;-82
2021/09/26 02:18:35;;;;;;;;;;;17.20;99.90;;;;;;5036708;28;19999;-82
2021/09/26 02:21:01;;;;;;;;;;;17.20;99.90;;;;;;5036626;28;20372;-82
2021/09/26 02:23:26;;;;;;;;;;;17.30;99.90;;;;;;5035488;28;19905;-83
2021/09/26 02:25:53;;;;;;;;;;;17.20;99.90;;;;;;5036731;28;19976;-82
2021/09/26 02:28:19;;;;;;;;;;;17.20;99.90;;;;;;5036654;28;20011;-82
2021/09/26 02:30:45;;;;;;;;;;;17.30;99.90;;;;;;5036651;28;19905;-82
2021/09/26 02:33:10;;;;;;;;;;;17.30;99.90;;;;;;5037146;28;19905;-82
2021/09/26 02:35:36;;;;;;;;;;;17.30;99.90;;;;;;5036519;28;19911;-82
2021/09/26 02:38:02;;;;;;;;;;;17.30;99.90;;;;;;5035105;28;19920;-82
2021/09/26 02:40:27;;;;;;;;;;;17.50;99.90;;;;;;5036399;28;19935;-82
2021/09/26 02:42:56;;;;;;;;;;;17.50;99.90;;;;;;5036420;28;19955;-82
2021/09/26 02:45:46;;;;;;;;;;;17.40;99.90;;;;;;5034996;28;19905;-82
2021/09/26 02:48:13;;;;;;;;;;;17.50;99.90;;;;;;5036741;28;19905;-81
2021/09/26 02:50:40;;;;;;;;;;;17.50;99.90;;;;;;5035391;28;20372;-81
2021/09/26 02:53:07;;;;;;;;;;;17.50;99.90;;;;;;5036174;28;19912;-81
2021/09/26 02:55:34;;;;;;;;;;;17.60;99.90;;;;;;5036733;28;19909;-80
2021/09/26 02:58:00;;;;;;;;;;;17.60;99.90;;;;;;5034823;28;19912;-80
2021/09/26 03:00:37;;;;;;;;;;;17.60;99.90;;;;;;5036096;28;19905;-80
2021/09/26 03:03:06;;;;;;;;;;;17.60;99.90;;;;;;5036000;28;19915;-80
2021/09/26 03:05:32;;;;;;;;;;;17.70;99.90;;;;;;5035650;28;19917;-80
2021/09/26 03:07:58;;;;;;;;;;;17.70;99.90;;;;;;5036356;28;20001;-80
2021/09/26 03:10:23;;;;;;;;;;;17.70;99.90;;;;;;5036207;28;20292;-80
2021/09/26 03:12:49;;;;;;;;;;;17.70;99.90;;;;;;5034578;28;19905;-80
2021/09/26 03:15:14;;;;;;;;;;;17.70;99.90;;;;;;5035759;28;19936;-80
2021/09/26 03:17:40;;;;;;;;;;;17.70;99.90;;;;;;5035826;28;19905;-80
2021/09/26 03:20:06;;;;;;;;;;;17.70;99.90;;;;;;5036158;28;19905;-80
2021/09/26 03:22:31;;;;;;;;;;;17.70;99.90;;;;;;5035658;28;19912;-80
2021/09/26 03:24:57;;;;;;;;;;;17.70;99.90;;;;;;5034373;28;19905;-80
2021/09/26 03:27:23;;;;;;;;;;;17.70;99.90;;;;;;5034214;28;19909;-80
2021/09/26 03:29:48;;;;;;;;;;;17.70;99.90;;;;;;5035516;28;19946;-80
2021/09/26 03:32:14;;;;;;;;;;;17.70;99.90;;;;;;5035454;28;19905;-80
2021/09/26 03:34:40;;;;;;;;;;;17.80;99.90;;;;;;5034188;28;20013;-80
2021/09/26 03:37:06;;;;;;;;;;;17.90;99.90;;;;;;5034038;28;20355;-80
2021/09/26 03:39:31;;;;;;;;;;;18.00;99.90;;;;;;5035403;28;20365;-80
2021/09/26 03:41:57;;;;;;;;;;;18.00;99.90;;;;;;5035281;28;19988;-80
2021/09/26 03:44:22;;;;;;;;;;;18.00;99.90;;;;;;5033960;28;19955;-80
2021/09/26 03:46:48;;;;;;;;;;;17.90;99.90;;;;;;5035544;28;19913;-79
2021/09/26 03:49:14;;;;;;;;;;;18.00;99.90;;;;;;5035153;28;19928;-80
2021/09/26 03:51:39;;;;;;;;;;;18.00;99.90;;;;;;5035143;28;19992;-80
2021/09/26 03:54:05;;;;;;;;;;;18.00;99.90;;;;;;5033746;28;20262;-80
2021/09/26 03:56:30;;;;;;;;;;;18.00;99.90;;;;;;5033757;28;19912;-79
2021/09/26 03:58:56;;;;;;;;;;;18.00;99.90;;;;;;5035522;28;19968;-80
2021/09/26 04:01:22;;;;;;;;;;;18.00;99.90;;;;;;5033623;28;19999;-80
2021/09/26 04:03:47;;;;;;;;;;;18.00;99.90;;;;;;5034879;28;19909;-80
2021/09/26 04:06:13;;;;;;;;;;;18.00;99.90;;;;;;5033320;28;19995;-80
2021/09/26 04:08:39;;;;;;;;;;;18.00;99.90;;;;;;5034760;28;19912;-80
2021/09/26 04:11:05;;;;;;;;;;;18.00;99.90;;;;;;5033412;28;19905;-80
2021/09/26 04:13:31;;;;;;;;;;;18.00;99.90;;;;;;5034766;28;20438;-80
2021/09/26 04:15:56;;;;;;;;;;;18.00;99.90;;;;;;5034685;28;19905;-79
2021/09/26 04:18:22;;;;;;;;;;;18.00;99.90;;;;;;5034711;28;19906;-80
2021/09/26 04:20:48;;;;;;;;;;;18.00;99.90;;;;;;5034604;28;19909;-80
2021/09/26 04:23:13;;;;;;;;;;;18.00;99.90;;;;;;5034750;28;19966;-79
2021/09/26 04:25:39;;;;;;;;;;;18.00;99.90;;;;;;5034527;28;20277;-80
2021/09/26 04:28:05;;;;;;;;;;;18.00;99.90;;;;;;5033120;28;19912;-79
2021/09/26 04:30:31;;;;;;;;;;;18.00;99.90;;;;;;5033102;28;19905;-80
2021/09/26 04:32:56;;;;;;;;;;;18.00;99.90;;;;;;5034340;28;19905;-80
2021/09/26 04:35:22;;;;;;;;;;;18.00;99.90;;;;;;5032982;28;19912;-80
2021/09/26 04:37:49;;;;;;;;;;;17.90;99.90;;;;;;5034217;28;19916;-80
2021/09/26 04:40:15;;;;;;;;;;;17.90;99.90;;;;;;5034135;28;19909;-80
2021/09/26 04:42:41;;;;;;;;;;;17.90;99.90;;;;;;5034160;28;19928;-80
2021/09/26 04:45:08;;;;;;;;;;;17.90;99.90;;;;;;5034110;28;19932;-79
2021/09/26 04:47:33;;;;;;;;;;;17.90;99.90;;;;;;5034287;28;19931;-80
2021/09/26 04:49:59;;;;;;;;;;;17.90;99.90;;;;;;5033981;28;20361;-80
2021/09/26 04:52:24;;;;;;;;;;;17.90;99.90;;;;;;5032515;28;19905;-80
2021/09/26 04:54:50;;;;;;;;;;;17.90;99.90;;;;;;5032710;28;20016;-80
2021/09/26 04:57:16;;;;;;;;;;;17.90;99.90;;;;;;5033945;28;20387;-80
2021/09/26 04:59:41;;;;;;;;;;;17.90;99.90;;;;;;5033980;28;19905;-80
2021/09/26 05:02:07;;;;;;;;;;;17.90;99.90;;;;;;5033860;28;19913;-79
2021/09/26 05:04:32;;;;;;;;;;;17.90;99.90;;;;;;5033705;28;20297;-80
2021/09/26 05:06:58;;;;;;;;;;;17.80;99.90;;;;;;5032437;28;19967;-79
2021/09/26 05:09:24;;;;;;;;;;;17.80;99.90;;;;;;5033986;28;19941;-80
2021/09/26 05:11:52;;;;;;;;;;;17.90;99.90;;;;;;5033726;28;19912;-80
2021/09/26 05:14:17;;;;;;;;;;;18.00;99.90;;;;;;5032032;28;19951;-80
2021/09/26 05:16:43;;;;;;;;;;;18.00;99.90;;;;;;5033764;28;19912;-81
2021/09/26 05:19:09;;;;;;;;;;;18.00;99.90;;;;;;5034096;28;19905;-80
2021/09/26 05:21:36;;;;;;;;;;;18.00;99.90;;;;;;5034016;28;19992;-80
2021/09/26 05:24:02;;;;;;;;;;;18.00;99.90;;;;;;5033824;28;20380;-80
2021/09/26 05:26:27;;;;;;;;;;;18.00;99.90;;;;;;5032281;28;19909;-80
2021/09/26 05:28:53;;;;;;;;;;;18.10;99.90;;;;;;5032324;28;19905;-80
2021/09/26 05:31:18;;;;;;;;;;;18.10;99.90;;;;;;5033570;28;20365;-80
2021/09/26 05:33:44;;;;;;;;;;;18.10;99.90;;;;;;5033494;28;19905;-80
2021/09/26 05:36:10;;;;;;;;;;;18.20;99.90;;;;;;5032224;28;19905;-81
2021/09/26 05:38:35;;;;;;;;;;;18.10;99.90;;;;;;5033604;28;19928;-80
2021/09/26 05:41:01;;;;;;;;;;;18.00;99.90;;;;;;5033452;28;19937;-80
2021/09/26 05:43:26;;;;;;;;;;;18.10;99.90;;;;;;5033952;28;19919;-80
2021/09/26 05:45:52;;;;;;;;;;;18.00;99.90;;;;;;5032078;28;19909;-80
2021/09/26 05:48:18;;;;;;;;;;;18.10;99.90;;;;;;5032100;28;19909;-81
2021/09/26 05:50:43;;;;;;;;;;;18.10;99.90;;;;;;5033397;28;19912;-80
2021/09/26 05:53:09;;;;;;;;;;;18.00;99.90;;;;;;5032076;28;19905;-80
2021/09/26 05:55:34;;;;;;;;;;;18.00;99.90;;;;;;5033341;28;19928;-80
2021/09/26 05:58:00;;;;;;;;;;;17.90;99.90;;;;;;5032022;28;19958;-80
2021/09/26 06:00:26;;;;;;;;;;;17.80;99.90;;;;;;5033344;28;20258;-80
2021/09/26 06:02:54;;;;;;;;;;;17.90;99.90;;;;;;5033281;28;19968;-80
2021/09/26 06:05:22;;;;;;;;;;;17.90;99.90;;;;;;5031833;28;20284;-80
2021/09/26 06:07:48;;;;;;;;;;;17.80;99.90;;;;;;5031874;28;20004;-80
2021/09/26 06:10:14;;;;;;;;;;;17.80;99.90;;;;;;5033217;28;19992;-80
2021/09/26 06:12:39;;;;;;;;;;;17.70;99.90;;;;;;5033115;28;20296;-80
2021/09/26 06:15:05;;;;;;;;;;;17.80;99.90;;;;;;5031831;28;20400;-79
2021/09/26 06:17:32;;;;;;;;;;;17.80;99.90;;;;;;5033048;28;19955;-80
2021/09/26 06:19:58;;;;;;;;;;;17.80;99.90;;;;;;5033346;28;19905;-79
2021/09/26 06:22:26;;;;;;;;;;;17.70;99.90;;;;;;5032889;28;19905;-79
2021/09/26 06:24:53;;;;;;;;;;;17.70;99.90;;;;;;5033208;28;19959;-80
2021/09/26 06:27:21;;;;;;;;;;;17.60;99.90;;;;;;5036590;28;19935;-79
2021/09/26 06:29:47;;;;;;;;;;;17.60;99.90;;;;;;5036512;28;20460;-80
2021/09/26 06:32:12;;;;;;;;;;;17.70;99.90;;;;;;5036722;28;19943;-80
2021/09/26 06:34:38;;;;;;;;;;;17.60;99.90;;;;;;5036484;28;19967;-80
2021/09/26 06:37:05;;;;;;;;;;;17.70;99.90;;;;;;5035345;28;19960;-80
2021/09/26 06:39:30;;;;;;;;;;;17.70;99.90;;;;;;5035024;28;20050;-79
2021/09/26 06:41:56;;;;;;;;;;;17.80;99.90;;;;;;5036291;28;19958;-80
2021/09/26 06:44:22;;;;;;;;;;;17.70;99.90;;;;;;5036241;28;19905;-80
2021/09/26 06:46:47;;;;;;;;;;;17.80;99.90;;;;;;5036122;28;20282;-80
2021/09/26 06:49:13;;;;;;;;;;;17.60;99.90;;;;;;5036170;28;19905;-80
2021/09/26 06:51:38;;;;;;;;;;;17.70;99.90;;;;;;5036389;28;20289;-80
2021/09/26 06:54:04;;;;;;;;;;;17.70;99.90;;;;;;5036211;28;19932;-80
2021/09/26 06:56:29;;;;;;;;;;;17.80;99.90;;;;;;5036119;28;19987;-80
2021/09/26 06:58:55;;;;;;;;;;;17.90;99.90;;;;;;5034708;28;19912;-80
2021/09/26 07:01:21;;;;;;;;;;;17.90;99.90;;;;;;5036055;28;20409;-80
2021/09/26 07:03:46;;;;;;;;;;;18.00;99.90;;;;;;5036070;28;20281;-79
2021/09/26 07:06:12;;;;;;;;;;;17.90;99.90;;;;;;5035742;28;19964;-79
2021/09/26 07:08:38;;;;;;;;;;;17.90;99.90;;;;;;5034631;28;19909;-80
2021/09/26 07:11:03;;;;;;;;;;;18.10;99.90;;;;;;5035776;28;20347;-79
2021/09/26 07:13:29;;;;;;;;;;;18.30;99.90;;;;;;5035763;28;19905;-80
2021/09/26 07:15:54;;;;;;;;;;;18.50;99.90;;;;;;5035896;28;20328;-80
2021/09/26 07:18:20;;;;;;;;;;;18.80;99.90;;;;;;5035637;28;19905;-80
2021/09/26 07:20:46;;;;;;;;;;;18.90;99.90;;;;;;5035689;28;19951;-80
2021/09/26 07:23:11;;;;;;;;;;;18.70;99.90;;;;;;5035629;28;19955;-80
2021/09/26 07:25:37;;;;;;;;;;;18.60;99.90;;;;;;5035513;28;19905;-80
2021/09/26 07:28:03;;;;;;;;;;;18.60;99.90;;;;;;5035512;28;20328;-80
2021/09/26 07:30:28;;;;;;;;;;;18.50;99.90;;;;;;5035498;28;19920;-80
2021/09/26 07:32:54;;;;;;;;;;;18.30;99.90;;;;;;5034180;28;19905;-79
2021/09/26 07:35:20;;;;;;;;;;;18.30;99.90;;;;;;5035822;28;20433;-80
2021/09/26 07:37:45;;;;;;;;;;;18.40;99.90;;;;;;5034977;28;19940;-80
2021/09/26 07:40:11;;;;;;;;;;;18.30;99.90;;;;;;5035262;28;19913;-79
2021/09/26 07:42:36;;;;;;;;;;;18.30;99.90;;;;;;5033918;28;20039;-79
2021/09/26 07:45:03;;;;;;;;;;;18.40;99.90;;;;;;5035089;28;19970;-79
2021/09/26 07:47:32;;;;;;;;;;;18.40;99.90;;;;;;5034927;28;19912;-79
2021/09/26 07:49:58;;;;;;;;;;;18.40;99.90;;;;;;5033671;28;19999;-79
2021/09/26 07:52:23;;;;;;;;;;;18.50;99.90;;;;;;5035368;28;19940;-79
2021/09/26 07:54:50;;;;;;;;;;;18.50;99.90;;;;;;5035174;28;19905;-80
2021/09/26 07:57:16;;;;;;;;;;;18.50;99.90;;;;;;5034956;28;19904;-80
2021/09/26 07:59:42;;;;;;;;;;;18.40;99.90;;;;;;5035088;28;20439;-79
2021/09/26 08:02:07;;;;;;;;;;;18.40;99.90;;;;;;5034877;28;19912;-79
2021/09/26 08:04:33;;;;;;;;;;;18.40;99.90;;;;;;5034674;28;19917;-80
2021/09/26 08:06:59;;;;;;;;;;;18.30;99.90;;;;;;5034746;28;19915;-79
2021/09/26 08:09:25;;;;;;;;;;;18.10;99.90;;;;;;5035020;28;19905;-80
2021/09/26 08:11:51;;;;;;;;;;;18.10;99.90;;;;;;5034757;28;19970;-79
2021/09/26 08:14:16;;;;;;;;;;;18.20;99.90;;;;;;5034768;28;19905;-79
2021/09/26 08:16:42;;;;;;;;;;;18.20;99.90;;;;;;5034642;28;19912;-79
2021/09/26 08:19:08;;;;;;;;;;;18.10;99.90;;;;;;5034937;28;19963;-79
2021/09/26 08:21:33;;;;;;;;;;;18.20;99.90;;;;;;5034507;28;19927;-79
2021/09/26 08:23:59;;;;;;;;;;;18.30;99.90;;;;;;5033155;28;20281;-78
2021/09/26 08:26:24;;;;;;;;;;;18.30;99.90;;;;;;5034376;28;19909;-79
2021/09/26 08:28:50;;;;;;;;;;;18.30;99.90;;;;;;5034609;28;19967;-79
2021/09/26 08:31:16;;;;;;;;;;;18.40;99.90;;;;;;5034746;28;19905;-79
2021/09/26 08:33:42;;;;;;;;;;;18.20;99.90;;;;;;5034287;28;19988;-79
2021/09/26 08:36:07;;;;;;;;;;;18.20;99.90;;;;;;5034411;28;19947;-79
2021/09/26 08:38:33;;;;;;;;;;;18.30;99.90;;;;;;5034294;28;19905;-79
2021/09/26 08:40:59;;;;;;;;;;;18.10;99.90;;;;;;5034235;28;19955;-79
2021/09/26 08:43:25;;;;;;;;;;;18.30;99.90;;;;;;5034527;28;19960;-78
2021/09/26 08:45:50;;;;;;;;;;;18.40;99.90;;;;;;5034210;28;20324;-79
2021/09/26 08:48:16;;;;;;;;;;;18.40;99.90;;;;;;5033490;28;19927;-79
2021/09/26 08:50:42;;;;;;;;;;;18.80;99.90;;;;;;5034017;28;19905;-78
2021/09/26 08:53:08;;;;;;;;;;;18.90;99.90;;;;;;5034268;28;20468;-79
2021/09/26 08:55:33;;;;;;;;;;;18.90;99.90;;;;;;5034000;28;19909;-79
2021/09/26 08:57:59;;;;;;;;;;;18.80;99.90;;;;;;5033945;28;19955;-79
2021/09/26 09:00:26;;;;;;;;;;;18.80;99.90;;;;;;5033637;28;19905;-79
2021/09/26 09:02:52;;;;;;;;;;;18.90;99.90;;;;;;5032525;28;19905;-79
2021/09/26 09:05:34;;;;;;;;;;;19.10;99.90;;;;;;5033593;28;19928;-79
2021/09/26 09:08:05;;;;;;;;;;;18.90;99.90;;;;;;5033738;28;20284;-79
2021/09/26 09:10:53;;;;;;;;;;;18.90;99.90;;;;;;5033809;28;19909;-78
2021/09/26 09:13:20;;;;;;;;;;;18.70;99.90;;;;;;5033632;28;20002;-79
2021/09/26 09:16:11;;;;;;;;;;;18.70;99.90;;;;;;5033739;28;19909;-79
2021/09/26 09:18:56;;;;;;;;;;;18.70;99.90;;;;;;5033245;28;20369;-78
2021/09/26 09:21:27;;;;;;;;;;;18.70;99.90;;;;;;5033908;28;19991;-79
2021/09/26 09:23:54;;;;;;;;;;;19.00;99.90;;;;;;5033774;28;19936;-79
2021/09/26 09:26:32;;;;;;;;;;;19.10;99.90;;;;;;5032298;28;20004;-79
2021/09/26 09:28:59;;;;;;;;;;;19.30;99.90;;;;;;5033666;28;20293;-79
2021/09/26 09:31:24;;;;;;;;;;;20.00;99.90;;;;;;5033610;28;19955;-79
2021/09/26 09:33:50;;;;;;;;;;;20.10;99.90;;;;;;5033879;28;19909;-78
2021/09/26 09:36:24;;;;;;;;;;;20.90;99.90;;;;;;5033451;28;19940;-78
2021/09/26 09:38:51;;;;;;;;;;;20.70;99.90;;;;;;5033501;28;19906;-79
2021/09/26 09:41:37;;;;;;;;;;;19.90;99.90;;;;;;5033488;28;19931;-79
2021/09/26 09:44:03;;;;;;;;;;;19.70;99.90;;;;;;5033199;28;19905;-78
2021/09/26 09:46:33;;;;;;;;;;;19.30;99.90;;;;;;5033368;28;20389;-78
2021/09/26 09:49:11;;;;;;;;;;;19.10;99.90;;;;;;5033375;28;19909;-78
2021/09/26 09:51:37;;;;;;;;;;;19.10;99.90;;;;;;5033438;28;19905;-78
2021/09/26 09:54:03;;;;;;;;;;;19.30;99.90;;;;;;5033361;28;20327;-78
2021/09/26 09:56:38;;;;;;;;;;;19.20;99.90;;;;;;5033351;28;19909;-78
2021/09/26 09:59:03;;;;;;;;;;;19.20;99.90;;;;;;5033899;28;19909;-78
2021/09/26 10:01:29;;;;;;;;;;;19.30;99.90;;;;;;5037158;28;19905;-78
2021/09/26 10:03:55;;;;;;;;;;;19.80;99.90;;;;;;5036980;28;19905;-79
2021/09/26 10:06:32;;;;;;;;;;;20.90;99.90;;;;;;5037000;28;19924;-79
2021/09/26 10:08:59;;;;;;;;;;;21.90;99.90;;;;;;5036045;28;19913;-79
2021/09/26 10:11:26;;;;;;;;;;;22.60;99.90;;;;;;5037042;28;19912;-79
2021/09/26 10:13:51;;;;;;;;;;;23.60;99.90;;;;;;5037153;28;19932;-79
2021/09/26 10:16:18;;;;;;;;;;;23.80;99.90;;;;;;5036905;28;19905;-79
2021/09/26 10:18:44;;;;;;;;;;;23.40;99.90;;;;;;5035560;28;20003;-79
2021/09/26 10:21:10;;;;;;;;;;;23.70;99.90;;;;;;5037231;28;19996;-80
2021/09/26 10:23:36;;;;;;;;;;;26.00;99.90;;;;;;5036819;28;19909;-77
2021/09/26 10:26:02;;;;;;;;;;;27.50;99.90;;;;;;5036675;28;19915;-77
2021/09/26 10:28:29;;;;;;;;;;;26.30;99.90;;;;;;5036660;28;19912;-77
2021/09/26 10:30:55;;;;;;;;;;;25.40;99.90;;;;;;5036634;28;20357;-77
2021/09/26 10:33:21;;;;;;;;;;;24.00;99.90;;;;;;5035329;28;19905;-76
2021/09/26 10:35:47;;;;;;;;;;;24.10;99.90;;;;;;5035191;28;20004;-76
2021/09/26 10:38:12;;;;;;;;;;;24.90;99.90;;;;;;5036603;28;19912;-76
2021/09/26 10:40:38;;;;;;;;;;;25.40;99.90;;;;;;5036432;28;19924;-77
2021/09/26 10:43:23;;;;;;;;;;;24.70;99.90;;;;;;5035085;28;19920;-76
2021/09/26 10:45:49;;;;;;;;;;;25.20;99.90;;;;;;5036281;28;20012;-77
2021/09/26 10:48:14;;;;;;;;;;;27.60;99.40;;;;;;5036317;28;20428;-77
2021/09/26 10:50:41;;;;;;;;;;;27.20;99.90;;;;;;5034967;28;19978;-76
2021/09/26 10:53:14;;;;;;;;;;;27.90;99.90;;;;;;5036364;28;19905;-77
2021/09/26 10:55:40;;;;;;;;;;;26.30;99.40;;;;;;5034949;28;20051;-76
2021/09/26 10:58:06;;;;;;;;;;;24.70;99.90;;;;;;5036197;28;19905;-76
2021/09/26 11:00:32;;;;;;;;;;;25.30;99.90;;;;;;5036219;28;19912;-76
2021/09/26 11:03:09;;;;;;;;;;;25.00;99.90;;;;;;5036039;28;19940;-76
2021/09/26 11:05:35;;;;;;;;;;;25.30;99.90;;;;;;5034338;28;19920;-76
2021/09/26 11:08:02;;;;;;;;;;;25.60;99.90;;;;;;5035714;28;19963;-76
2021/09/26 11:10:35;;;;;;;;;;;26.60;99.90;;;;;;5035724;28;19919;-77
2021/09/26 11:13:08;;;;;;;;;;;28.30;98.70;;;;;;5035769;28;19905;-77
2021/09/26 11:15:53;;;;;;;;;;;28.60;98.20;;;;;;5034569;28;20264;-77
2021/09/26 11:18:39;;;;;;;;;;;29.70;95.70;;;;;;5035663;28;19909;-77
2021/09/26 11:21:04;;;;;;;;;;;26.80;97.70;;;;;;5035749;28;20258;-76
2021/09/26 11:23:34;;;;;;;;;;;26.30;98.90;;;;;;5034406;28;19963;-76
2021/09/26 11:26:06;;;;;;;;;;;26.20;98.80;;;;;;5034330;28;19909;-77
2021/09/26 11:28:39;;;;;;;;;;;26.30;98.40;;;;;;5034307;28;19905;-76
2021/09/26 11:31:09;;;;;;;;;;;24.80;99.90;;;;;;5035610;28;19911;-76
2021/09/26 11:34:04;;;;;;;;;;;24.00;99.90;;;;;;5035494;28;19959;-76
2021/09/26 11:36:29;;;;;;;;;;;23.20;99.90;;;;;;5034780;28;20277;-76
2021/09/26 11:38:56;;;;;;;;;;;23.90;99.90;;;;;;5035407;28;19912;-76
2021/09/26 11:41:35;;;;;;;;;;;24.70;99.90;;;;;;5035386;28;19905;-76
2021/09/26 11:44:02;;;;;;;;;;;27.00;99.90;;;;;;5035324;28;19959;-77
2021/09/26 11:46:28;;;;;;;;;;;29.40;95.70;;;;;;5033933;28;19909;-77
2021/09/26 11:49:01;;;;;;;;;;;27.30;97.70;;;;;;5035368;28;19905;-77
2021/09/26 11:51:27;;;;;;;;;;;27.10;97.50;;;;;;5033902;28;20419;-77
2021/09/26 11:53:52;;;;;;;;;;;29.10;95.60;;;;;;5035369;28;20369;-77
2021/09/26 11:56:22;;;;;;;;;;;26.50;97.30;;;;;;5035116;28;19915;-77
2021/09/26 11:58:52;;;;;;;;;;;29.60;94.40;;;;;;5033694;28;20353;-77
2021/09/26 12:01:28;;;;;;;;;;;32.40;90.10;;;;;;5034965;28;19928;-78
2021/09/26 12:04:04;;;;;;;;;;;33.60;81.10;;;;;;5034718;28;19940;-77
2021/09/26 12:06:29;;;;;;;;;;;35.50;71.40;;;;;;5034865;28;19957;-78
2021/09/26 12:08:55;;;;;;;;;;;35.20;67.30;;;;;;5034793;28;19905;-78
2021/09/26 12:11:20;;;;;;;;;;;34.80;63.20;;;;;;5034799;28;19974;-77
2021/09/26 12:13:56;;;;;;;;;;;29.90;71.20;;;;;;5034753;28;19905;-76
2021/09/26 12:16:23;;;;;;;;;;;28.20;83.90;;;;;;5034720;28;19909;-77
2021/09/26 12:18:56;;;;;;;;;;;27.70;89.30;;;;;;5033337;28;19916;-78
2021/09/26 12:21:27;;;;;;;;;;;33.70;75.00;;;;;;5034626;28;20361;-77
2021/09/26 12:23:58;;;;;;;;;;;30.10;74.80;;;;;;5033701;28;19911;-77
2021/09/26 12:26:33;;;;;;;;;;;28.20;82.60;;;;;;5034413;28;19962;-77
2021/09/26 12:28:59;;;;;;;;;;;27.70;82.70;;;;;;5034569;28;19916;-77
2021/09/26 12:31:26;;;;;;;;;;;26.80;84.90;;;;;;5034380;28;19909;-76
2021/09/26 12:33:54;;;;;;;;;;;25.00;91.50;;;;;;5034463;28;19951;-78
2021/09/26 12:36:21;;;;;;;;;;;24.50;93.40;;;;;;5034373;28;19940;-78
2021/09/26 12:38:46;;;;;;;;;;;24.30;96.10;;;;;;5032949;28;19905;-79
2021/09/26 12:41:21;;;;;;;;;;;24.30;97.20;;;;;;5034233;28;20258;-79
2021/09/26 12:43:47;;;;;;;;;;;24.10;98.00;;;;;;5034540;28;20380;-79
2021/09/26 12:46:15;;;;;;;;;;;25.10;97.40;;;;;;5034220;28;19908;-79
2021/09/26 12:48:42;;;;;;;;;;;25.50;96.00;;;;;;5034107;28;19940;-78
2021/09/26 12:51:14;;;;;;;;;;;25.90;95.30;;;;;;5034537;28;19909;-77
2021/09/26 12:53:41;;;;;;;;;;;29.50;91.70;;;;;;5034031;28;20322;-77
2021/09/26 12:56:08;;;;;;;;;;;32.20;87.50;;;;;;5032492;28;19909;-77
2021/09/26 12:58:41;;;;;;;;;;;34.10;72.90;;;;;;5033966;28;19905;-78
2021/09/26 13:01:27;;;;;;;;;;;35.80;64.30;;;;;;5034097;28;20396;-77
2021/09/26 13:03:55;;;;;;;;;;;31.70;69.40;;;;;;5033498;28;19905;-77
2021/09/26 13:06:22;;;;;;;;;;;29.30;75.30;;;;;;5033814;28;19913;-77
2021/09/26 13:08:48;;;;;;;;;;;29.50;74.60;;;;;;5034012;28;20003;-76
2021/09/26 13:11:25;;;;;;;;;;;27.60;80.10;;;;;;5033820;28;19940;-76
2021/09/26 13:14:00;;;;;;;;;;;26.40;86.40;;;;;;5033779;28;19912;-77
2021/09/26 13:16:26;;;;;;;;;;;31.90;76.30;;;;;;5033723;28;20312;-77
2021/09/26 13:18:51;;;;;;;;;;;27.80;80.90;;;;;;5032454;28;19905;-76
2021/09/26 13:21:23;;;;;;;;;;;25.90;86.20;;;;;;5033692;28;19955;-76
2021/09/26 13:23:56;;;;;;;;;;;25.90;90.90;;;;;;5032383;28;20369;-76
2021/09/26 13:26:24;;;;;;;;;;;28.50;83.60;;;;;;5033536;28;19915;-76
2021/09/26 13:28:52;;;;;;;;;;;26.90;87.50;;;;;;5033827;28;19905;-76
2021/09/26 13:31:22;;;;;;;;;;;26.20;90.40;;;;;;5033788;28;19999;-76
2021/09/26 13:33:56;;;;;;;;;;;25.60;90.70;;;;;;5033890;28;19951;-76
2021/09/26 13:36:35;;;;;;;;;;;24.80;92.30;;;;;;5037696;28;19931;-78
2021/09/26 13:39:03;;;;;;;;;;;24.50;93.80;;;;;;5037819;28;19909;-79
2021/09/26 13:41:40;;;;;;;;;;;24.60;93.80;;;;;;5036341;28;20273;-79
2021/09/26 13:44:08;;;;;;;;;;;25.30;92.90;;;;;;5037707;28;19912;-79
2021/09/26 13:46:34;;;;;;;;;;;25.20;92.80;;;;;;5037528;28;19909;-79
2021/09/26 13:49:00;;;;;;;;;;;25.30;93.20;;;;;;5037690;28;19905;-79
2021/09/26 13:51:26;;;;;;;;;;;24.60;94.60;;;;;;5037402;28;19958;-78
2021/09/26 13:53:51;;;;;;;;;;;25.10;94.70;;;;;;5037362;28;19984;-78
2021/09/26 13:56:17;;;;;;;;;;;25.70;93.50;;;;;;5037340;28;20043;-79
2021/09/26 13:58:43;;;;;;;;;;;26.80;92.40;;;;;;5037357;28;19905;-79
2021/09/26 14:01:11;;;;;;;;;;;26.50;90.40;;;;;;5037226;28;19916;-79
2021/09/26 14:03:37;;;;;;;;;;;30.50;86.50;;;;;;5037194;28;20011;-77
2021/09/26 14:06:03;;;;;;;;;;;29.30;79.20;;;;;;5035405;28;19995;-76
2021/09/26 14:08:28;;;;;;;;;;;29.90;82.10;;;;;;5037163;28;19909;-76
2021/09/26 14:10:54;;;;;;;;;;;33.50;71.10;;;;;;5037052;28;19987;-76
2021/09/26 14:13:20;;;;;;;;;;;30.20;70.10;;;;;;5036986;28;20384;-76
2021/09/26 14:15:46;;;;;;;;;;;27.30;80.30;;;;;;5037138;28;19952;-76
2021/09/26 14:18:12;;;;;;;;;;;28.60;82.70;;;;;;5036944;28;19908;-76
2021/09/26 14:20:38;;;;;;;;;;;27.10;82.80;;;;;;5036762;28;19905;-76